sensor_id;sensor_type;location;lat;lon;timestamp;pressure;altitude;pressure_sealevel;temperature;humidity
27014;BME280;14556;52.222;4.510;2023-07-31T00:02:25;100115.09;;;15.66;100.00
27014;BME280;14556;52.222;4.510;2023-07-31T00:04:52;100113.78;;;15.69;100.00
27014;BME280;14556;52.222;4.510;2023-07-31T00:07:18;100119.59;;;15.61;100.00
27014;BME280;14556;52.222;4.510;2023-07-31T00:09:45;100130.75;;;15.69;100.00
27014;BME280;14556;52.222;4.510;2023-07-31T00:12:11;100123.38;;;15.59;100.00
27014;BME280;14556;52.222;4.510;2023-07-31T00:14:38;100128.59;;;15.66;100.00
27014;BME280;14556;52.222;4.510;2023-07-31T00:17:05;100129.91;;;15.64;100.00
27014;BME280;14556;52.222;4.510;2023-07-31T00:19:31;100128.69;;;15.54;100.00
27014;BME280;14556;52.222;4.510;2023-07-31T00:21:58;100131.16;;;15.56;100.00
27014;BME280;14556;52.222;4.510;2023-07-31T00:24:24;100132.03;;;15.62;100.00
27014;BME280;14556;52.222;4.510;2023-07-31T00:26:51;100124.63;;;15.52;100.00
27014;BME280;14556;52.222;4.510;2023-07-31T00:29:17;100128.06;;;15.47;100.00
27014;BME280;14556;52.222;4.510;2023-07-31T00:31:46;100115.66;;;15.46;100.00
27014;BME280;14556;52.222;4.510;2023-07-31T00:34:13;100136.47;;;15.51;100.00
27014;BME280;14556;52.222;4.510;2023-07-31T00:36:40;100132.38;;;15.48;100.00
27014;BME280;14556;52.222;4.510;2023-07-31T00:39:07;100124.28;;;15.48;100.00
27014;BME280;14556;52.222;4.510;2023-07-31T00:41:33;100128.88;;;15.47;100.00
27014;BME280;14556;52.222;4.510;2023-07-31T00:44:00;100124.47;;;15.41;100.00
27014;BME280;14556;52.222;4.510;2023-07-31T00:46:26;100108.88;;;15.43;100.00
27014;BME280;14556;52.222;4.510;2023-07-31T00:48:56;100115.84;;;15.39;100.00
27014;BME280;14556;52.222;4.510;2023-07-31T00:51:24;100128.31;;;15.45;100.00
27014;BME280;14556;52.222;4.510;2023-07-31T00:53:51;100124.47;;;15.41;100.00
27014;BME280;14556;52.222;4.510;2023-07-31T00:56:20;100102.59;;;15.38;100.00
27014;BME280;14556;52.222;4.510;2023-07-31T00:58:47;100111.06;;;15.46;100.00
27014;BME280;14556;52.222;4.510;2023-07-31T01:01:15;100101.94;;;15.47;100.00
27014;BME280;14556;52.222;4.510;2023-07-31T01:03:42;100101.13;;;15.47;100.00
27014;BME280;14556;52.222;4.510;2023-07-31T01:06:26;100107.59;;;15.46;100.00
27014;BME280;14556;52.222;4.510;2023-07-31T01:09:18;100110.22;;;15.41;100.00
27014;BME280;14556;52.222;4.510;2023-07-31T01:11:52;100097.72;;;15.34;100.00
27014;BME280;14556;52.222;4.510;2023-07-31T01:14:19;100101.47;;;15.33;100.00
27014;BME280;14556;52.222;4.510;2023-07-31T01:16:45;100110.41;;;15.34;100.00
27014;BME280;14556;52.222;4.510;2023-07-31T01:19:14;100107.91;;;15.32;100.00
27014;BME280;14556;52.222;4.510;2023-07-31T01:24:22;100100.97;;;15.37;100.00
27014;BME280;14556;52.222;4.510;2023-07-31T01:26:58;100104.81;;;15.41;100.00
27014;BME280;14556;52.222;4.510;2023-07-31T01:32:13;100074.66;;;15.21;100.00
27014;BME280;14556;52.222;4.510;2023-07-31T01:34:41;100090.28;;;15.42;100.00
27014;BME280;14556;52.222;4.510;2023-07-31T01:37:09;100089.63;;;15.34;100.00
27014;BME280;14556;52.222;4.510;2023-07-31T01:39:38;100083.19;;;15.35;100.00
27014;BME280;14556;52.222;4.510;2023-07-31T01:42:05;100085.88;;;15.35;100.00
27014;BME280;14556;52.222;4.510;2023-07-31T01:44:34;100076.34;;;15.28;100.00
27014;BME280;14556;52.222;4.510;2023-07-31T01:47:01;100081.22;;;15.31;100.00
27014;BME280;14556;52.222;4.510;2023-07-31T01:49:28;100085.56;;;15.32;100.00
27014;BME280;14556;52.222;4.510;2023-07-31T01:51:55;100079.63;;;15.30;100.00
27014;BME280;14556;52.222;4.510;2023-07-31T01:54:21;100071.53;;;15.30;100.00
27014;BME280;14556;52.222;4.510;2023-07-31T01:56:48;100072.56;;;15.29;100.00
27014;BME280;14556;52.222;4.510;2023-07-31T01:59:14;100055.94;;;15.32;100.00
27014;BME280;14556;52.222;4.510;2023-07-31T02:01:41;100057.81;;;15.31;100.00
27014;BME280;14556;52.222;4.510;2023-07-31T02:04:08;100042.16;;;15.28;100.00
27014;BME280;14556;52.222;4.510;2023-07-31T02:06:36;100048.31;;;15.29;100.00
27014;BME280;14556;52.222;4.510;2023-07-31T02:09:03;100043.38;;;15.20;100.00
27014;BME280;14556;52.222;4.510;2023-07-31T02:11:31;100048.25;;;15.23;100.00
27014;BME280;14556;52.222;4.510;2023-07-31T02:13:58;100043.13;;;15.22;100.00
27014;BME280;14556;52.222;4.510;2023-07-31T02:16:25;100050.41;;;15.21;100.00
27014;BME280;14556;52.222;4.510;2023-07-31T02:18:52;100043.19;;;15.27;100.00
27014;BME280;14556;52.222;4.510;2023-07-31T02:21:18;100037.25;;;15.25;100.00
27014;BME280;14556;52.222;4.510;2023-07-31T02:23:45;100029.34;;;15.18;100.00
27014;BME280;14556;52.222;4.510;2023-07-31T02:26:11;100041.50;;;15.21;100.00
27014;BME280;14556;52.222;4.510;2023-07-31T02:28:38;100038.00;;;15.20;100.00
27014;BME280;14556;52.222;4.510;2023-07-31T02:31:05;100043.94;;;15.22;100.00
27014;BME280;14556;52.222;4.510;2023-07-31T02:33:31;100019.63;;;15.17;100.00
27014;BME280;14556;52.222;4.510;2023-07-31T02:35:58;100023.16;;;15.18;100.00
27014;BME280;14556;52.222;4.510;2023-07-31T02:38:25;100021.25;;;15.18;100.00
27014;BME280;14556;52.222;4.510;2023-07-31T02:40:52;100021.50;;;15.17;100.00
27014;BME280;14556;52.222;4.510;2023-07-31T02:43:21;100021.50;;;15.17;100.00
27014;BME280;14556;52.222;4.510;2023-07-31T02:45:52;100005.91;;;15.19;100.00
27014;BME280;14556;52.222;4.510;2023-07-31T02:48:19;100008.28;;;15.15;100.00
27014;BME280;14556;52.222;4.510;2023-07-31T02:50:48;100002.41;;;15.18;100.00
27014;BME280;14556;52.222;4.510;2023-07-31T02:53:14;100002.72;;;15.22;100.00
27014;BME280;14556;52.222;4.510;2023-07-31T02:55:41;100007.06;;;15.23;100.00
27014;BME280;14556;52.222;4.510;2023-07-31T02:58:08;100004.94;;;15.25;100.00
27014;BME280;14556;52.222;4.510;2023-07-31T03:00:36;100000.84;;;15.22;100.00
27014;BME280;14556;52.222;4.510;2023-07-31T03:03:02;100000.84;;;15.22;100.00
27014;BME280;14556;52.222;4.510;2023-07-31T03:05:29;99997.34;;;15.22;100.00
27014;BME280;14556;52.222;4.510;2023-07-31T03:07:57;99999.22;;;15.21;100.00
27014;BME280;14556;52.222;4.510;2023-07-31T03:10:23;100000.84;;;15.22;100.00
27014;BME280;14556;52.222;4.510;2023-07-31T03:12:50;99995.22;;;15.24;100.00
27014;BME280;14556;52.222;4.510;2023-07-31T03:15:16;99982.75;;;15.18;100.00
27014;BME280;14556;52.222;4.510;2023-07-31T03:17:44;99992.19;;;15.20;100.00
27014;BME280;14556;52.222;4.510;2023-07-31T03:20:11;99990.91;;;15.23;100.00
27014;BME280;14556;52.222;4.510;2023-07-31T03:22:37;99986.81;;;15.20;100.00
27014;BME280;14556;52.222;4.510;2023-07-31T03:25:04;99994.88;;;15.20;100.00
27014;BME280;14556;52.222;4.510;2023-07-31T03:27:31;99996.22;;;15.18;100.00
27014;BME280;14556;52.222;4.510;2023-07-31T03:29:59;99977.31;;;15.13;100.00
27014;BME280;14556;52.222;4.510;2023-07-31T03:32:25;99976.47;;;15.12;100.00
27014;BME280;14556;52.222;4.510;2023-07-31T03:34:52;99978.34;;;15.11;100.00
27014;BME280;14556;52.222;4.510;2023-07-31T03:37:18;99973.41;;;15.03;100.00
27014;BME280;14556;52.222;4.510;2023-07-31T03:39:45;99976.75;;;15.10;100.00
27014;BME280;14556;52.222;4.510;2023-07-31T03:42:13;99975.66;;;15.11;100.00
27014;BME280;14556;52.222;4.510;2023-07-31T03:44:39;99959.69;;;15.05;100.00
27014;BME280;14556;52.222;4.510;2023-07-31T03:47:06;99952.63;;;14.98;100.00
27014;BME280;14556;52.222;4.510;2023-07-31T03:49:33;99962.13;;;15.06;100.00
27014;BME280;14556;52.222;4.510;2023-07-31T03:51:59;99949.69;;;15.00;100.00
27014;BME280;14556;52.222;4.510;2023-07-31T03:54:26;99949.44;;;15.02;100.00
27014;BME280;14556;52.222;4.510;2023-07-31T03:56:52;99943.03;;;15.08;100.00
27014;BME280;14556;52.222;4.510;2023-07-31T03:59:19;99945.97;;;15.06;100.00
27014;BME280;14556;52.222;4.510;2023-07-31T04:01:46;99930.84;;;15.00;100.00
27014;BME280;14556;52.222;4.510;2023-07-31T04:04:12;99947.06;;;15.05;100.00
27014;BME280;14556;52.222;4.510;2023-07-31T04:06:39;99943.53;;;15.05;100.00
27014;BME280;14556;52.222;4.510;2023-07-31T04:09:06;99941.41;;;15.07;100.00
27014;BME280;14556;52.222;4.510;2023-07-31T04:11:32;99931.41;;;15.02;100.00
27014;BME280;14556;52.222;4.510;2023-07-31T04:13:59;99945.91;;;15.01;100.00
27014;BME280;14556;52.222;4.510;2023-07-31T04:16:26;99931.88;;;14.99;100.00
27014;BME280;14556;52.222;4.510;2023-07-31T04:18:52;99928.66;;;14.97;100.00
27014;BME280;14556;52.222;4.510;2023-07-31T04:21:20;99913.72;;;14.89;100.00
27014;BME280;14556;52.222;4.510;2023-07-31T04:23:47;99913.53;;;14.96;100.00
27014;BME280;14556;52.222;4.510;2023-07-31T04:26:13;99917.63;;;14.98;100.00
27014;BME280;14556;52.222;4.510;2023-07-31T04:28:41;99903.00;;;14.94;100.00
27014;BME280;14556;52.222;4.510;2023-07-31T04:31:08;99907.94;;;15.03;100.00
27014;BME280;14556;52.222;4.510;2023-07-31T04:33:35;99897.06;;;14.92;100.00
27014;BME280;14556;52.222;4.510;2023-07-31T04:36:02;99900.63;;;14.98;100.00
27014;BME280;14556;52.222;4.510;2023-07-31T04:38:29;99910.66;;;15.03;100.00
27014;BME280;14556;52.222;4.510;2023-07-31T04:40:55;99908.47;;;14.99;100.00
27014;BME280;14556;52.222;4.510;2023-07-31T04:43:22;99900.38;;;14.99;100.00
27014;BME280;14556;52.222;4.510;2023-07-31T04:45:50;99896.13;;;15.04;100.00
27014;BME280;14556;52.222;4.510;2023-07-31T04:48:17;99903.66;;;15.02;100.00
27014;BME280;14556;52.222;4.510;2023-07-31T04:50:43;99891.00;;;15.02;100.00
27014;BME280;14556;52.222;4.510;2023-07-31T04:53:10;99881.28;;;15.01;100.00
27014;BME280;14556;52.222;4.510;2023-07-31T04:55:37;99886.09;;;14.99;100.00
27014;BME280;14556;52.222;4.510;2023-07-31T04:58:03;99877.75;;;14.95;100.00
27014;BME280;14556;52.222;4.510;2023-07-31T05:00:30;99884.16;;;14.94;100.00
27014;BME280;14556;52.222;4.510;2023-07-31T05:02:58;99880.91;;;14.92;100.00
27014;BME280;14556;52.222;4.510;2023-07-31T05:05:25;99884.78;;;15.02;100.00
27014;BME280;14556;52.222;4.510;2023-07-31T05:07:51;99880.72;;;14.99;100.00
27014;BME280;14556;52.222;4.510;2023-07-31T05:10:18;99873.16;;;14.96;100.00
27014;BME280;14556;52.222;4.510;2023-07-31T05:12:45;99873.72;;;14.98;100.00
27014;BME280;14556;52.222;4.510;2023-07-31T05:15:11;99864.81;;;14.97;100.00
27014;BME280;14556;52.222;4.510;2023-07-31T05:17:38;99864.63;;;15.04;100.00
27014;BME280;14556;52.222;4.510;2023-07-31T05:20:05;99869.72;;;15.01;100.00
27014;BME280;14556;52.222;4.510;2023-07-31T05:22:32;99864.88;;;15.03;100.00
27014;BME280;14556;52.222;4.510;2023-07-31T05:24:59;99863.81;;;15.04;100.00
27014;BME280;14556;52.222;4.510;2023-07-31T05:27:28;99851.34;;;14.97;100.00
27014;BME280;14556;52.222;4.510;2023-07-31T05:29:55;99860.56;;;15.02;100.00
27014;BME280;14556;52.222;4.510;2023-07-31T05:32:21;99853.56;;;15.01;100.00
27014;BME280;14556;52.222;4.510;2023-07-31T05:34:51;99845.97;;;14.97;100.00
27014;BME280;14556;52.222;4.510;2023-07-31T05:37:18;99846.78;;;14.98;100.00
27014;BME280;14556;52.222;4.510;2023-07-31T05:39:45;99847.91;;;15.02;100.00
27014;BME280;14556;52.222;4.510;2023-07-31T05:42:11;99857.34;;;15.05;100.00
27014;BME280;14556;52.222;4.510;2023-07-31T05:44:39;99839.28;;;15.00;100.00
27014;BME280;14556;52.222;4.510;2023-07-31T05:47:06;99845.47;;;15.01;100.00
27014;BME280;14556;52.222;4.510;2023-07-31T05:49:32;99849.78;;;15.02;100.00
27014;BME280;14556;52.222;4.510;2023-07-31T05:51:59;99838.69;;;14.98;100.00
27014;BME280;14556;52.222;4.510;2023-07-31T05:54:26;99856.53;;;15.04;100.00
27014;BME280;14556;52.222;4.510;2023-07-31T05:56:52;99836.84;;;14.98;100.00
27014;BME280;14556;52.222;4.510;2023-07-31T05:59:19;99836.53;;;14.95;100.00
27014;BME280;14556;52.222;4.510;2023-07-31T06:01:45;99831.72;;;14.97;100.00
27014;BME280;14556;52.222;4.510;2023-07-31T06:04:12;99839.28;;;15.00;100.00
27014;BME280;14556;52.222;4.510;2023-07-31T06:06:39;99834.88;;;14.94;100.00
27014;BME280;14556;52.222;4.510;2023-07-31T06:09:08;99836.84;;;14.98;100.00
27014;BME280;14556;52.222;4.510;2023-07-31T06:11:35;99824.09;;;14.94;100.00
27014;BME280;14556;52.222;4.510;2023-07-31T06:14:01;99820.38;;;14.95;100.00
27014;BME280;14556;52.222;4.510;2023-07-31T06:16:28;99815.03;;;15.00;100.00
27014;BME280;14556;52.222;4.510;2023-07-31T06:18:55;99823.63;;;14.97;100.00
27014;BME280;14556;52.222;4.510;2023-07-31T06:21:21;99836.06;;;15.03;100.00
27014;BME280;14556;52.222;4.510;2023-07-31T06:23:48;99835.50;;;15.01;100.00
27014;BME280;14556;52.222;4.510;2023-07-31T06:26:15;99816.09;;;14.99;100.00
27014;BME280;14556;52.222;4.510;2023-07-31T06:28:41;99820.22;;;15.07;100.00
27014;BME280;14556;52.222;4.510;2023-07-31T06:31:08;99823.16;;;15.05;100.00
27014;BME280;14556;52.222;4.510;2023-07-31T06:33:35;99820.47;;;15.05;100.00
27014;BME280;14556;52.222;4.510;2023-07-31T06:36:01;99816.13;;;15.04;100.00
27014;BME280;14556;52.222;4.510;2023-07-31T06:38:28;99810.22;;;15.02;100.00
27014;BME280;14556;52.222;4.510;2023-07-31T06:40:55;99804.84;;;15.02;100.00
27014;BME280;14556;52.222;4.510;2023-07-31T06:43:22;99809.69;;;15.05;100.00
27014;BME280;14556;52.222;4.510;2023-07-31T06:45:48;99803.22;;;15.06;100.00
27014;BME280;14556;52.222;4.510;2023-07-31T06:48:17;99800.84;;;15.10;100.00
27014;BME280;14556;52.222;4.510;2023-07-31T06:50:44;99803.81;;;15.08;100.00
27014;BME280;14556;52.222;4.510;2023-07-31T06:53:12;99805.97;;;15.11;100.00
27014;BME280;14556;52.222;4.510;2023-07-31T06:55:38;99800.06;;;15.09;100.00
27014;BME280;14556;52.222;4.510;2023-07-31T06:58:05;99791.09;;;15.04;100.00
27014;BME280;14556;52.222;4.510;2023-07-31T07:00:32;99797.63;;;15.13;100.00
27014;BME280;14556;52.222;4.510;2023-07-31T07:03:00;99796.81;;;15.07;100.00
27014;BME280;14556;52.222;4.510;2023-07-31T07:05:27;99786.03;;;15.07;100.00
27014;BME280;14556;52.222;4.510;2023-07-31T07:07:53;99794.72;;;15.15;100.00
27014;BME280;14556;52.222;4.510;2023-07-31T07:10:20;99803.22;;;15.06;100.00
27014;BME280;14556;52.222;4.510;2023-07-31T07:12:47;99818.97;;;15.15;100.00
27014;BME280;14556;52.222;4.510;2023-07-31T07:15:14;99806.84;;;15.17;100.00
27014;BME280;14556;52.222;4.510;2023-07-31T07:17:40;99802.81;;;15.15;100.00
27014;BME280;14556;52.222;4.510;2023-07-31T07:20:08;99803.84;;;15.14;100.00
27014;BME280;14556;52.222;4.510;2023-07-31T07:22:34;99797.16;;;15.16;100.00
27014;BME280;14556;52.222;4.510;2023-07-31T07:25:04;99803.38;;;15.22;100.00
27014;BME280;14556;52.222;4.510;2023-07-31T07:27:31;99810.72;;;15.27;100.00
27014;BME280;14556;52.222;4.510;2023-07-31T07:29:57;99792.34;;;15.23;100.00
27014;BME280;14556;52.222;4.510;2023-07-31T07:32:24;99806.69;;;15.29;100.00
27014;BME280;14556;52.222;4.510;2023-07-31T07:34:51;99799.16;;;15.31;100.00
27014;BME280;14556;52.222;4.510;2023-07-31T07:37:17;99805.38;;;15.32;100.00
27014;BME280;14556;52.222;4.510;2023-07-31T07:39:44;99794.84;;;15.30;100.00
27014;BME280;14556;52.222;4.510;2023-07-31T07:42:11;99799.94;;;15.27;100.00
27014;BME280;14556;52.222;4.510;2023-07-31T07:44:37;99797.78;;;15.29;100.00
27014;BME280;14556;52.222;4.510;2023-07-31T07:47:04;99809.69;;;15.33;100.00
27014;BME280;14556;52.222;4.510;2023-07-31T07:49:34;99800.81;;;15.38;100.00
27014;BME280;14556;52.222;4.510;2023-07-31T07:52:02;99813.47;;;15.32;100.00
27014;BME280;14556;52.222;4.510;2023-07-31T07:54:30;99801.38;;;15.40;100.00
27014;BME280;14556;52.222;4.510;2023-07-31T07:56:59;99802.50;;;15.44;100.00
27014;BME280;14556;52.222;4.510;2023-07-31T07:59:25;99794.63;;;15.37;100.00
27014;BME280;14556;52.222;4.510;2023-07-31T08:01:52;99787.59;;;15.36;100.00
27014;BME280;14556;52.222;4.510;2023-07-31T08:04:19;99796.25;;;15.38;100.00
27014;BME280;14556;52.222;4.510;2023-07-31T08:06:46;99792.25;;;15.41;100.00
27014;BME280;14556;52.222;4.510;2023-07-31T08:09:13;99793.28;;;15.40;100.00
27014;BME280;14556;52.222;4.510;2023-07-31T08:11:40;99776.13;;;15.46;100.00
27014;BME280;14556;52.222;4.510;2023-07-31T08:14:07;99766.94;;;15.47;100.00
27014;BME280;14556;52.222;4.510;2023-07-31T08:16:33;99780.13;;;15.43;100.00
27014;BME280;14556;52.222;4.510;2023-07-31T08:19:01;99770.72;;;15.46;100.00
27014;BME280;14556;52.222;4.510;2023-07-31T08:21:28;99780.13;;;15.43;100.00
27014;BME280;14556;52.222;4.510;2023-07-31T08:23:55;99785.84;;;15.52;100.00
27014;BME280;14556;52.222;4.510;2023-07-31T08:26:21;99781.28;;;15.53;100.00
27014;BME280;14556;52.222;4.510;2023-07-31T08:28:48;99767.47;;;15.44;100.00
27014;BME280;14556;52.222;4.510;2023-07-31T08:31:15;99770.50;;;15.53;100.00
27014;BME280;14556;52.222;4.510;2023-07-31T08:33:46;99770.81;;;15.56;100.00
27014;BME280;14556;52.222;4.510;2023-07-31T08:36:12;99776.19;;;15.56;100.00
27014;BME280;14556;52.222;4.510;2023-07-31T08:38:39;99770.28;;;15.59;100.00
27014;BME280;14556;52.222;4.510;2023-07-31T08:41:06;99767.03;;;15.57;100.00
27014;BME280;14556;52.222;4.510;2023-07-31T08:43:33;99775.97;;;15.63;100.00
27014;BME280;14556;52.222;4.510;2023-07-31T08:46:00;99769.75;;;15.63;100.00
27014;BME280;14556;52.222;4.510;2023-07-31T08:48:28;99782.75;;;15.71;100.00
27014;BME280;14556;52.222;4.510;2023-07-31T08:50:55;99759.00;;;15.68;100.00
27014;BME280;14556;52.222;4.510;2023-07-31T08:53:22;99777.06;;;15.67;100.00
27014;BME280;14556;52.222;4.510;2023-07-31T08:55:49;99771.66;;;15.67;100.00
27014;BME280;14556;52.222;4.510;2023-07-31T08:58:17;99776.03;;;15.74;100.00
27014;BME280;14556;52.222;4.510;2023-07-31T09:00:46;99770.94;;;15.77;100.00
27014;BME280;14556;52.222;4.510;2023-07-31T09:03:15;99771.66;;;15.67;100.00
27014;BME280;14556;52.222;4.510;2023-07-31T09:05:45;99760.88;;;15.67;100.00
27014;BME280;14556;52.222;4.510;2023-07-31T09:08:13;99764.41;;;15.68;100.00
27014;BME280;14556;52.222;4.510;2023-07-31T09:10:44;99762.22;;;15.65;100.00
27014;BME280;14556;52.222;4.510;2023-07-31T09:13:15;99777.66;;;15.75;100.00
27014;BME280;14556;52.222;4.510;2023-07-31T09:15:44;99775.75;;;15.70;100.00
27014;BME280;14556;52.222;4.510;2023-07-31T09:18:12;99775.75;;;15.70;100.00
27014;BME280;14556;52.222;4.510;2023-07-31T09:20:40;99769.28;;;15.76;100.00
27014;BME280;14556;52.222;4.510;2023-07-31T09:23:09;99776.63;;;15.81;100.00
27014;BME280;14556;52.222;4.510;2023-07-31T09:25:36;99761.19;;;15.71;100.00
27014;BME280;14556;52.222;4.510;2023-07-31T09:28:06;99782.31;;;15.85;100.00
27014;BME280;14556;52.222;4.510;2023-07-31T09:33:11;99771.53;;;15.85;100.00
27014;BME280;14556;52.222;4.510;2023-07-31T09:35:38;99768.56;;;15.86;100.00
27014;BME280;14556;52.222;4.510;2023-07-31T09:38:07;99779.13;;;15.93;100.00
27014;BME280;14556;52.222;4.510;2023-07-31T09:40:42;99772.69;;;15.99;100.00
27014;BME280;14556;52.222;4.510;2023-07-31T09:43:11;99773.19;;;15.96;100.00
27014;BME280;14556;52.222;4.510;2023-07-31T09:45:41;99768.97;;;16.05;100.00
27014;BME280;14556;52.222;4.510;2023-07-31T09:48:15;99769.25;;;16.09;100.00
27014;BME280;14556;52.222;4.510;2023-07-31T09:50:46;99773.09;;;16.24;100.00
27014;BME280;14556;52.222;4.510;2023-07-31T09:53:16;99767.44;;;16.30;100.00
27014;BME280;14556;52.222;4.510;2023-07-31T09:55:45;99755.31;;;16.33;100.00
27014;BME280;14556;52.222;4.510;2023-07-31T09:58:13;99770.81;;;16.64;100.00
27014;BME280;14556;52.222;4.510;2023-07-31T10:00:40;99752.94;;;16.42;100.00
27014;BME280;14556;52.222;4.510;2023-07-31T10:03:10;99774.28;;;16.49;100.00
27014;BME280;14556;52.222;4.510;2023-07-31T10:05:42;99768.31;;;16.41;100.00
27014;BME280;14556;52.222;4.510;2023-07-31T10:08:13;99752.84;;;16.21;100.00
27014;BME280;14556;52.222;4.510;2023-07-31T10:10:42;99752.31;;;16.24;100.00
27014;BME280;14556;52.222;4.510;2023-07-31T10:13:09;99763.16;;;16.35;100.00
27014;BME280;14556;52.222;4.510;2023-07-31T10:15:37;99779.41;;;16.50;100.00
27014;BME280;14556;52.222;4.510;2023-07-31T10:18:06;99770.75;;;16.43;100.00
27014;BME280;14556;52.222;4.510;2023-07-31T10:20:34;99765.84;;;16.35;100.00
27014;BME280;14556;52.222;4.510;2023-07-31T10:23:01;99768.03;;;16.38;100.00
27014;BME280;14556;52.222;4.510;2023-07-31T10:25:28;99767.78;;;16.44;100.00
27014;BME280;14556;52.222;4.510;2023-07-31T10:27:57;99766.69;;;16.35;100.00
27014;BME280;14556;52.222;4.510;2023-07-31T10:30:26;99764.78;;;16.36;100.00
27014;BME280;14556;52.222;4.510;2023-07-31T10:32:54;99779.09;;;16.41;100.00
27014;BME280;14556;52.222;4.510;2023-07-31T10:35:21;99768.31;;;16.41;100.00
27014;BME280;14556;52.222;4.510;2023-07-31T10:37:49;99774.81;;;16.46;100.00
27014;BME280;14556;52.222;4.510;2023-07-31T10:40:19;99778.59;;;16.50;100.00
27014;BME280;14556;52.222;4.510;2023-07-31T10:42:51;99748.34;;;16.42;100.00
27014;BME280;14556;52.222;4.510;2023-07-31T10:45:32;99774.28;;;16.54;100.00
27014;BME280;14556;52.222;4.510;2023-07-31T10:48:00;99761.06;;;16.58;100.00
27014;BME280;14556;52.222;4.510;2023-07-31T10:50:29;99763.25;;;16.71;100.00
27014;BME280;14556;52.222;4.510;2023-07-31T10:52:57;99754.59;;;16.64;100.00
27014;BME280;14556;52.222;4.510;2023-07-31T10:55:31;99764.63;;;16.68;100.00
27014;BME280;14556;52.222;4.510;2023-07-31T10:58:10;99765.97;;;16.82;100.00
27014;BME280;14556;52.222;4.510;2023-07-31T11:00:39;99758.72;;;16.87;100.00
27014;BME280;14556;52.222;4.510;2023-07-31T11:03:19;99762.22;;;16.83;100.00
27014;BME280;14556;52.222;4.510;2023-07-31T11:08:29;99751.41;;;16.77;100.00
27014;BME280;14556;52.222;4.510;2023-07-31T11:15:59;99759.81;;;16.86;100.00
27014;BME280;14556;52.222;4.510;2023-07-31T11:18:27;99748.19;;;16.91;100.00
27014;BME280;14556;52.222;4.510;2023-07-31T11:20:56;99742.25;;;16.99;100.00
27014;BME280;14556;52.222;4.510;2023-07-31T11:23:24;99722.00;;;16.91;100.00
27014;BME280;14556;52.222;4.510;2023-07-31T11:25:51;99737.94;;;16.93;100.00
27014;BME280;14556;52.222;4.510;2023-07-31T11:28:18;99729.28;;;16.86;100.00
27014;BME280;14556;52.222;4.510;2023-07-31T11:30:46;99726.84;;;16.84;100.00
27014;BME280;14556;52.222;4.510;2023-07-31T11:33:13;99729.00;;;16.87;100.00
27014;BME280;14556;52.222;4.510;2023-07-31T11:35:46;99724.41;;;16.83;100.00
27014;BME280;14556;52.222;4.510;2023-07-31T11:38:30;99738.97;;;16.87;100.00
27014;BME280;14556;52.222;4.510;2023-07-31T11:40:59;99725.75;;;16.80;100.00
27014;BME280;14556;52.222;4.510;2023-07-31T11:43:26;99733.03;;;16.85;100.00
27014;BME280;14556;52.222;4.510;2023-07-31T11:46:00;99748.19;;;16.91;100.00
27014;BME280;14556;52.222;4.510;2023-07-31T11:48:32;99755.75;;;16.89;100.00
27014;BME280;14556;52.222;4.510;2023-07-31T11:51:01;99746.53;;;16.85;100.00
27014;BME280;14556;52.222;4.510;2023-07-31T11:53:41;99753.84;;;16.89;100.00
27014;BME280;14556;52.222;4.510;2023-07-31T11:56:12;99759.00;;;16.91;100.00
27014;BME280;14556;52.222;4.510;2023-07-31T11:58:40;99763.03;;;16.99;100.00
27014;BME280;14556;52.222;4.510;2023-07-31T12:01:07;99750.06;;;16.96;100.00
27014;BME280;14556;52.222;4.510;2023-07-31T12:03:34;99748.75;;;16.98;100.00
27014;BME280;14556;52.222;4.510;2023-07-31T12:06:01;99746.31;;;16.97;100.00
27014;BME280;14556;52.222;4.510;2023-07-31T12:08:29;99729.56;;;17.00;100.00
27014;BME280;14556;52.222;4.510;2023-07-31T12:11:02;99720.09;;;17.08;100.00
27014;BME280;14556;52.222;4.510;2023-07-31T12:13:30;99719.56;;;17.06;100.00
27014;BME280;14556;52.222;4.510;2023-07-31T12:15:59;99717.38;;;17.02;100.00
27014;BME280;14556;52.222;4.510;2023-07-31T12:18:34;99715.78;;;17.01;100.00
27014;BME280;14556;52.222;4.510;2023-07-31T12:21:03;99723.06;;;17.01;100.00
27014;BME280;14556;52.222;4.510;2023-07-31T12:23:32;99714.69;;;17.02;100.00
27014;BME280;14556;52.222;4.510;2023-07-31T12:26:08;99712.81;;;17.03;100.00
27014;BME280;14556;52.222;4.510;2023-07-31T12:28:42;99719.81;;;17.04;100.00
27014;BME280;14556;52.222;4.510;2023-07-31T12:31:10;99713.63;;;17.03;100.00
27014;BME280;14556;52.222;4.510;2023-07-31T12:33:39;99712.56;;;17.10;100.00
27014;BME280;14556;52.222;4.510;2023-07-31T12:36:11;99708.78;;;17.11;100.00
27014;BME280;14556;52.222;4.510;2023-07-31T12:38:39;99699.06;;;17.15;100.00
27014;BME280;14556;52.222;4.510;2023-07-31T12:41:05;99699.88;;;17.26;100.00
27014;BME280;14556;52.222;4.510;2023-07-31T12:43:36;99687.66;;;17.44;100.00
27014;BME280;14556;52.222;4.510;2023-07-31T12:46:03;99688.19;;;17.51;100.00
27014;BME280;14556;52.222;4.510;2023-07-31T12:48:31;99697.91;;;17.63;100.00
27014;BME280;14556;52.222;4.510;2023-07-31T12:50:58;99704.66;;;17.60;100.00
27014;BME280;14556;52.222;4.510;2023-07-31T12:53:25;99706.59;;;17.55;100.00
27014;BME280;14556;52.222;4.510;2023-07-31T12:55:51;99700.38;;;17.49;100.00
27014;BME280;14556;52.222;4.510;2023-07-31T12:58:18;99689.81;;;17.52;100.00
27014;BME280;14556;52.222;4.510;2023-07-31T13:00:45;99694.66;;;17.66;100.00
27014;BME280;14556;52.222;4.510;2023-07-31T13:03:11;99700.56;;;17.79;100.00
27014;BME280;14556;52.222;4.510;2023-07-31T13:05:38;99693.00;;;17.81;100.00
27014;BME280;14556;52.222;4.510;2023-07-31T13:08:06;99670.81;;;17.79;100.00